createdAt,value
2022-08-21T00:01:58.430Z,100117.38
2022-08-21T00:07:08.043Z,100112.00
2022-08-21T00:09:35.751Z,100121.19
2022-08-21T00:12:09.043Z,100110.78
2022-08-21T00:14:41.669Z,100120.78
2022-08-21T00:17:09.069Z,100106.41
2022-08-21T00:19:39.008Z,100107.88
2022-08-21T00:22:07.148Z,100111.00
2022-08-21T00:27:16.747Z,100107.88
2022-08-21T00:29:44.991Z,100121.22
2022-08-21T00:32:31.625Z,100110.34
2022-08-21T00:35:00.298Z,100113.94
2022-08-21T00:38:59.178Z,100104.97
2022-08-21T00:41:38.948Z,100102.06
2022-08-21T00:46:52.023Z,100113.31
2022-08-21T00:52:03.247Z,100101.63
2022-08-21T01:08:56.536Z,100108.75
2022-08-21T01:11:28.032Z,100118.13
2022-08-21T01:13:55.920Z,100106.47
2022-08-21T01:16:24.177Z,100109.78
2022-08-21T01:18:53.162Z,100104.78
2022-08-21T01:21:27.863Z,100100.19
2022-08-21T01:24:02.602Z,100102.50
2022-08-21T01:26:34.631Z,100099.16
2022-08-21T01:29:19.101Z,100098.94
2022-08-21T01:36:18.701Z,100085.81
2022-08-21T01:38:48.182Z,100096.22
2022-08-21T01:41:18.555Z,100102.91
2022-08-21T01:43:50.635Z,100086.44
2022-08-21T01:46:27.444Z,100091.19
2022-08-21T01:48:59.048Z,100100.16
2022-08-21T01:54:08.390Z,100092.84
2022-08-21T01:59:25.416Z,100100.31
2022-08-21T02:01:57.159Z,100089.25
2022-08-21T02:04:38.119Z,100103.22
2022-08-21T02:07:08.437Z,100104.44
2022-08-21T02:09:43.354Z,100104.44
2022-08-21T02:12:12.251Z,100112.56
2022-08-21T02:18:08.139Z,100105.28
2022-08-21T02:20:42.800Z,100102.41
2022-08-21T02:23:14.124Z,100099.88
2022-08-21T02:25:51.796Z,100105.72
2022-08-21T02:28:19.807Z,100101.75
2022-08-21T02:30:48.933Z,100115.28
2022-08-21T02:33:17.204Z,100115.06
2022-08-21T02:38:34.761Z,100101.97
2022-08-21T02:41:06.626Z,100119.84
2022-08-21T02:44:39.074Z,100119.84
2022-08-21T02:47:08.243Z,100116.09
2022-08-21T02:49:38.028Z,100113.59
2022-08-21T02:52:07.367Z,100119.41
2022-08-21T02:54:37.977Z,100120.84
2022-08-21T02:57:05.263Z,100122.91
2022-08-21T02:59:33.389Z,100115.66
2022-08-21T03:02:02.425Z,100113.78
2022-08-21T03:04:41.372Z,100120.25
2022-08-21T03:14:56.077Z,100129.41
2022-08-21T03:23:38.765Z,100136.53
2022-08-21T03:26:06.463Z,100131.56
2022-08-21T03:28:37.924Z,100113.44
2022-08-21T03:31:11.069Z,100119.47
2022-08-21T03:33:38.959Z,100136.81
2022-08-21T03:36:13.420Z,100132.47
2022-08-21T03:38:43.471Z,100134.72
2022-08-21T03:56:57.943Z,100143.50
2022-08-21T03:59:34.846Z,100132.50
2022-08-21T04:02:08.919Z,100131.66
2022-08-21T04:07:22.462Z,100119.34
2022-08-21T04:09:50.589Z,100129.78
2022-08-21T04:12:20.663Z,100120.81
2022-08-21T04:17:33.047Z,100127.31
2022-08-21T04:20:04.910Z,100115.84
2022-08-21T04:22:32.643Z,100127.09
2022-08-21T04:25:00.452Z,100135.84
2022-08-21T04:27:32.025Z,100140.00
2022-08-21T04:35:38.804Z,100138.56
2022-08-21T04:40:50.595Z,100124.16
2022-08-21T04:43:19.609Z,100135.84
2022-08-21T04:45:52.203Z,100136.66
2022-08-21T04:48:22.251Z,100143.34
2022-08-21T04:51:08.502Z,100147.28
2022-08-21T04:54:06.874Z,100139.56
2022-08-21T04:56:47.710Z,100145.81
2022-08-21T05:02:16.867Z,100140.22
2022-08-21T05:04:53.525Z,100147.72
2022-08-21T05:21:23.194Z,100135.47
2022-08-21T05:23:51.931Z,100126.50
2022-08-21T05:26:19.859Z,100138.19
2022-08-21T05:28:48.686Z,100131.66
2022-08-21T05:31:16.925Z,100123.50
2022-08-21T05:33:44.131Z,100133.50
2022-08-21T05:41:39.356Z,100131.69
2022-08-21T05:44:12.268Z,100128.72
2022-08-21T05:46:40.119Z,100129.97
2022-08-21T05:49:07.629Z,100137.94
2022-08-21T05:51:35.246Z,100131.19
2022-08-21T05:54:06.370Z,100135.34
2022-08-21T05:56:37.802Z,100132.44
2022-08-21T05:59:08.581Z,100122.28
2022-08-21T06:01:38.153Z,100134.69
2022-08-21T06:04:15.290Z,100128.19
2022-08-21T06:06:42.623Z,100129.56
2022-08-21T06:11:52.622Z,100115.19
2022-08-21T06:14:26.303Z,100118.00
2022-08-21T06:16:55.767Z,100117.88
2022-08-21T06:19:26.824Z,100117.13
2022-08-21T06:21:58.245Z,100111.44
2022-08-21T06:27:10.987Z,100116.34
2022-08-21T06:29:44.226Z,100119.06
2022-08-21T06:35:02.964Z,100106.19
2022-08-21T06:37:32.436Z,100108.22
2022-08-21T06:40:00.780Z,100086.44
2022-08-21T06:42:31.500Z,100096.50
2022-08-21T06:47:41.590Z,100102.22
2022-08-21T06:50:15.996Z,100114.41
2022-08-21T06:52:45.597Z,100090.69
2022-08-21T06:55:22.303Z,100094.50
2022-08-21T06:57:54.614Z,100105.69
2022-08-21T07:03:05.632Z,100095.25
2022-08-21T07:05:36.441Z,100105.16
2022-08-21T07:08:05.252Z,100101.97
2022-08-21T07:13:16.309Z,100079.09
2022-08-21T07:16:00.281Z,100062.34
2022-08-21T07:18:33.134Z,100072.78
2022-08-21T07:23:53.794Z,100071.47
2022-08-21T08:13:27.301Z,100067.09
2022-08-21T08:24:18.839Z,100024.69
2022-08-21T14:49:08.852Z,99899.28
2022-08-21T20:19:36.888Z,99904.91
2022-08-21T20:24:53.575Z,99878.06
2022-08-21T20:27:27.483Z,99876.31
2022-08-21T20:29:57.224Z,99884.50
2022-08-21T20:32:27.666Z,99891.59
2022-08-21T20:34:55.775Z,99887.13
2022-08-21T20:51:45.406Z,99897.47
2022-08-21T20:54:41.756Z,99924.59
2022-08-21T20:57:20.751Z,99885.41
2022-08-21T21:00:02.149Z,99922.59
2022-08-21T21:03:06.713Z,99924.47
2022-08-21T21:06:03.255Z,99896.41
2022-08-21T21:08:55.196Z,99907.44
2022-08-21T21:11:40.584Z,99893.13
2022-08-21T21:14:28.114Z,99888.16
2022-08-21T21:19:54.134Z,99875.84
2022-08-21T21:22:29.781Z,99884.47
2022-08-21T21:48:26.950Z,99872.03
2022-08-21T21:51:27.248Z,99885.66
2022-08-21T21:54:20.905Z,99894.53
2022-08-21T21:57:34.615Z,99916.09
2022-08-21T22:03:22.478Z,99893.34
2022-08-21T22:06:10.229Z,99914.19
2022-08-21T22:09:10.364Z,99905.91
2022-08-21T22:12:24.507Z,99881.94
2022-08-21T22:14:54.572Z,99884.06
2022-08-21T22:17:51.341Z,99908.50
2022-08-21T22:23:22.471Z,99894.47
2022-08-21T22:28:42.319Z,99892.00
2022-08-21T22:34:21.670Z,99903.97
2022-08-21T22:37:03.154Z,99878.97
2022-08-21T22:39:38.751Z,99875.06
2022-08-21T22:45:15.838Z,99907.28
2022-08-21T22:47:50.623Z,99891.84
2022-08-21T22:53:10.695Z,99891.56
2022-08-21T22:55:50.319Z,99900.94
2022-08-21T22:58:19.281Z,99914.56
2022-08-21T23:00:55.896Z,99913.97
2022-08-21T23:03:43.343Z,99893.72
2022-08-21T23:06:33.155Z,99888.84
2022-08-21T23:09:04.352Z,99888.72
2022-08-21T23:14:25.467Z,99891.22
2022-08-21T23:17:12.456Z,99911.03
2022-08-21T23:20:05.057Z,99901.50
2022-08-21T23:25:51.581Z,99920.22
2022-08-21T23:32:22.949Z,99903.03
2022-08-21T23:35:21.765Z,99921.25
2022-08-21T23:38:09.373Z,99926.50
2022-08-21T23:40:53.453Z,99909.53
2022-08-21T23:43:38.053Z,99925.44
2022-08-21T23:46:34.040Z,99903.34
2022-08-21T23:49:22.071Z,99929.22
2022-08-21T23:52:20.919Z,99910.91
2022-08-21T23:55:20.589Z,99938.63
2022-08-21T23:58:00.630Z,99945.97
